Time;durP1;ratioP1;P1;durP2;ratioP2;P2;SDS_P1;SDS_P2;PMS_P1;PMS_P2;Temp;Humidity;BMP_temperature;BMP_pressure;BME280_temperature;BME280_humidity;BME280_pressure;Samples;Min_cycle;Max_cycle;Signal;HPM_P1;HPM_P2
2022/05/04 00:01:39;;;;;;;;;33.00;27.00;;;;;13.94;67.06;101574.47;5050876;28;45280;-74
2022/05/04 00:04:06;;;;;;;;;36.75;26.00;;;;;13.89;66.19;101563.31;5050174;28;46372;-73
2022/05/04 00:06:31;;;;;;;;;28.50;23.25;;;;;13.86;66.14;101560.78;5045652;28;46046;-75
2022/05/04 00:08:56;;;;;;;;;38.25;32.00;;;;;13.85;66.58;101561.69;5044722;28;45501;-76
2022/05/04 00:11:22;;;;;;;;;30.50;23.50;;;;;13.80;68.01;101553.09;5051421;28;45583;-74
2022/05/04 00:13:47;;;;;;;;;37.00;29.50;;;;;13.78;66.54;101554.91;5048517;28;45431;-75
2022/05/04 00:16:12;;;;;;;;;39.00;31.00;;;;;13.73;66.63;101554.16;5044542;27;45781;-76
2022/05/04 00:18:38;;;;;;;;;39.25;30.50;;;;;13.74;66.76;101553.28;5054285;28;45413;-79
2022/05/04 00:21:03;;;;;;;;;28.50;26.50;;;;;13.72;66.58;101549.84;5048701;28;45589;-79
2022/05/04 00:23:28;;;;;;;;;37.50;24.75;;;;;13.69;66.72;101540.34;5050015;28;46311;-78
2022/05/04 00:25:54;;;;;;;;;26.00;23.75;;;;;13.63;67.99;101538.75;5048095;28;45269;-79
2022/05/04 00:28:19;;;;;;;;;40.00;26.00;;;;;13.60;67.51;101536.22;5050514;28;45363;-82
2022/05/04 00:30:45;;;;;;;;;33.75;29.75;;;;;13.56;66.92;101526.75;5047935;28;45499;-80
2022/05/04 00:33:10;;;;;;;;;28.25;21.25;;;;;13.53;66.33;101532.06;5048686;28;45441;-80
2022/05/04 00:35:36;;;;;;;;;27.00;24.25;;;;;13.51;67.22;101528.63;5048090;28;45366;-80
2022/05/04 00:38:01;;;;;;;;;27.50;22.75;;;;;13.48;67.05;101527.88;5052558;28;45171;-81
2022/05/04 00:40:27;;;;;;;;;32.00;28.50;;;;;13.47;66.60;101516.56;5046728;28;45589;-81
2022/05/04 00:42:52;;;;;;;;;33.00;25.75;;;;;13.49;68.69;101524.34;5049711;28;45308;-81
2022/05/04 00:45:18;;;;;;;;;35.75;26.75;;;;;13.49;68.27;101522.59;5048710;28;45434;-81
2022/05/04 00:47:43;;;;;;;;;33.50;30.00;;;;;13.47;67.12;101520.94;5045496;28;45478;-80
2022/05/04 00:50:09;;;;;;;;;40.50;34.00;;;;;13.43;66.95;101520.16;5047078;28;45445;-81
2022/05/04 00:52:37;;;;;;;;;34.00;26.00;;;;;13.46;67.09;101517.47;5038706;28;47850;-81
2022/05/04 00:55:06;;;;;;;;;38.50;32.75;;;;;13.43;67.15;101520.16;5040368;28;45412;-82
2022/05/04 01:00:20;;;;;;;;;33.75;25.75;;;;;13.45;67.66;101515.75;5045257;28;46503;-79
2022/05/04 01:02:45;;;;;;;;;28.25;22.00;;;;;13.42;68.40;101528.03;5044064;28;46563;-80
2022/05/04 01:05:11;;;;;;;;;38.00;28.50;;;;;13.38;67.87;101535.06;5040520;28;45959;-82
2022/05/04 01:07:38;;;;;;;;;32.50;28.00;;;;;13.33;68.81;101535.19;5041518;28;45430;-81
2022/05/04 01:10:05;;;;;;;;;37.75;30.00;;;;;13.29;68.62;101532.72;5041038;28;45463;-81
2022/05/04 01:12:31;;;;;;;;;39.50;32.00;;;;;13.22;68.99;101529.44;5041543;28;45347;-80
2022/05/04 01:14:57;;;;;;;;;32.50;25.50;;;;;13.17;69.73;101535.59;5039421;28;45802;-80
2022/05/04 01:17:22;;;;;;;;;40.25;28.25;;;;;13.14;68.87;101527.84;5043075;28;45436;-80
2022/05/04 01:19:48;;;;;;;;;40.00;29.00;;;;;13.07;69.56;101521.94;5048940;28;45486;-81
2022/05/04 01:22:13;;;;;;;;;31.25;25.75;;;;;13.05;69.61;101524.59;5048951;28;46526;-81
2022/05/04 01:24:39;;;;;;;;;34.75;31.75;;;;;13.03;68.83;101531.59;5048650;28;45182;-74
2022/05/04 01:27:09;;;;;;;;;37.50;30.75;;;;;13.00;69.83;101533.41;5049508;28;45324;-74
2022/05/04 01:29:34;;;;;;;;;30.50;25.75;;;;;12.94;71.52;101537.03;5048038;28;45557;-73
2022/05/04 01:32:00;;;;;;;;;41.25;30.50;;;;;12.89;70.41;101535.44;5048826;28;46176;-72
2022/05/04 01:34:28;;;;;;;;;33.00;27.75;;;;;12.90;69.94;101545.84;5047367;28;45413;-72
2022/05/04 01:36:53;;;;;;;;;38.25;28.50;;;;;12.83;70.47;101536.47;5047504;28;45211;-72
2022/05/04 01:39:18;;;;;;;;;39.00;32.25;;;;;12.85;70.43;101539.03;5048726;28;45285;-71
2022/05/04 01:42:05;;;;;;;;;41.75;31.00;;;;;12.86;70.00;101538.97;5048785;28;46466;-72
2022/05/04 01:44:30;;;;;;;;;42.25;29.75;;;;;12.89;70.16;101544.13;5048229;28;45236;-72
2022/05/04 01:46:55;;;;;;;;;40.00;32.00;;;;;12.92;69.11;101541.44;5047312;28;45932;-71
2022/05/04 01:49:21;;;;;;;;;34.50;31.00;;;;;12.90;69.81;101529.31;5042308;28;45299;-72
2022/05/04 01:51:46;;;;;;;;;41.25;25.75;;;;;12.90;70.63;101540.63;5040427;28;45341;-72
2022/05/04 01:54:11;;;;;;;;;37.75;32.00;;;;;12.87;70.61;101543.31;5039308;28;45316;-73
2022/05/04 01:56:37;;;;;;;;;40.75;30.25;;;;;12.82;70.82;101539.97;5040708;28;45324;-72
2022/05/04 01:59:03;;;;;;;;;31.75;26.00;;;;;12.75;71.00;101536.63;5040726;28;45292;-73
2022/05/04 02:01:29;;;;;;;;;43.25;29.75;;;;;12.72;69.81;101538.44;5040047;28;46106;-72
2022/05/04 02:03:54;;;;;;;;;36.25;24.50;;;;;12.69;71.59;101542.00;5041377;28;45343;-73
2022/05/04 02:06:20;;;;;;;;;36.50;27.25;;;;;12.63;71.70;101539.53;5040204;28;45327;-72
2022/05/04 02:08:46;;;;;;;;;43.00;32.50;;;;;12.61;71.75;101540.44;5040612;28;45405;-72
2022/05/04 02:11:12;;;;;;;;;35.25;29.50;;;;;12.56;71.84;101532.72;5040095;28;45623;-72
2022/05/04 02:13:37;;;;;;;;;39.25;30.75;;;;;12.59;72.03;101529.19;5040107;28;45282;-72
2022/05/04 02:16:05;;;;;;;;;36.75;31.00;;;;;12.56;71.18;101524.91;5040146;28;45292;-71
2022/05/04 02:18:31;;;;;;;;;33.25;25.75;;;;;12.56;71.97;101530.13;5040090;28;45379;-71
2022/05/04 02:20:56;;;;;;;;;41.25;34.50;;;;;12.56;71.05;101534.47;5041671;28;45459;-70
2022/05/04 02:23:22;;;;;;;;;43.25;35.00;;;;;12.61;70.10;101530.00;5039669;28;45401;-71
2022/05/04 02:25:47;;;;;;;;;41.00;30.00;;;;;12.59;70.09;101524.81;5040258;28;45469;-68
2022/05/04 02:28:13;;;;;;;;;34.75;31.00;;;;;12.61;70.35;101517.81;5039972;28;45341;-73
2022/05/04 02:30:38;;;;;;;;;41.25;28.75;;;;;12.59;70.67;101524.81;5039848;28;45453;-73
2022/05/04 02:33:03;;;;;;;;;36.00;32.00;;;;;12.54;70.99;101515.41;5039784;28;45384;-74
2022/05/04 02:38:13;;;;;;;;;37.00;30.00;;;;;12.49;70.13;101518.13;5040011;28;45351;-74
2022/05/04 02:40:38;;;;;;;;;45.00;30.75;;;;;12.45;70.29;101519.94;5041853;28;45449;-74
2022/05/04 02:43:06;;;;;;;;;43.25;35.00;;;;;12.48;69.98;101521.63;5039733;28;45296;-74
2022/05/04 02:45:31;;;;;;;;;33.25;27.75;;;;;12.49;70.82;101524.19;5039812;28;45218;-75
2022/05/04 02:47:57;;;;;;;;;41.75;32.25;;;;;12.47;70.49;101532.94;5039708;28;45891;-73
2022/05/04 02:50:22;;;;;;;;;43.25;31.25;;;;;12.44;69.86;101520.00;5039541;28;46722;-72
2022/05/04 02:52:48;;;;;;;;;39.25;32.25;;;;;12.41;71.56;101523.53;5039868;28;45272;-72
2022/05/04 02:55:13;;;;;;;;;39.50;34.00;;;;;12.32;70.32;101525.47;5038831;28;45223;-73
2022/05/04 02:57:39;;;;;;;;;36.00;32.50;;;;;12.28;70.58;101524.69;5039666;28;45204;-72
2022/05/04 03:00:05;;;;;;;;;38.75;30.25;;;;;12.25;70.08;101514.31;5039248;28;46392;-72
2022/05/04 03:02:30;;;;;;;;;42.00;30.75;;;;;12.22;70.44;101518.75;5039692;28;45456;-71
2022/05/04 03:05:02;;;;;;;;;27.00;20.00;;;;;12.20;70.84;101516.16;5038129;28;45573;-71
2022/05/04 03:07:28;;;;;;;;;36.25;29.75;;;;;12.12;71.06;101515.47;5039572;28;45518;-70
2022/05/04 03:09:55;;;;;;;;;37.50;30.25;;;;;12.07;73.29;101512.97;5039414;28;45268;-74
2022/05/04 03:12:20;;;;;;;;;38.50;31.25;;;;;12.03;72.42;101508.72;5039938;28;45773;-73
2022/05/04 03:14:46;;;;;;;;;39.25;30.50;;;;;12.02;72.18;101511.34;5039216;28;45520;-72
2022/05/04 03:17:11;;;;;;;;;43.50;35.00;;;;;12.02;71.36;101501.78;5036973;28;45359;-73
2022/05/04 03:19:37;;;;;;;;;46.00;31.25;;;;;11.98;71.92;101505.34;5038861;28;46381;-74
2022/05/04 03:22:03;;;;;;;;;35.75;27.75;;;;;11.97;73.94;101513.19;5039417;28;45471;-74
2022/05/04 03:24:28;;;;;;;;;40.00;31.00;;;;;11.94;72.63;101508.03;5039369;28;46680;-73
2022/05/04 03:26:53;;;;;;;;;28.75;22.50;;;;;11.86;74.42;101516.88;5039414;28;45244;-74
2022/05/04 03:29:19;;;;;;;;;36.50;32.50;;;;;11.82;73.66;101515.22;5039055;28;45374;-74
2022/05/04 03:31:45;;;;;;;;;38.00;30.00;;;;;11.79;72.92;101507.44;5039084;28;45382;-75
2022/05/04 03:34:10;;;;;;;;;45.50;33.50;;;;;11.83;72.50;101506.53;5038975;28;45272;-76
2022/05/04 03:36:36;;;;;;;;;42.00;33.25;;;;;11.87;72.37;101508.19;5039265;28;45488;-75
2022/05/04 03:39:02;;;;;;;;;39.75;25.50;;;;;11.92;72.09;101496.78;5039001;28;45293;-76
2022/05/04 03:41:27;;;;;;;;;36.25;32.25;;;;;11.94;72.92;101497.63;5039365;28;45773;-76
2022/05/04 03:43:53;;;;;;;;;40.75;35.00;;;;;11.96;72.10;101498.44;5038777;28;45436;-75
2022/05/04 03:46:20;;;;;;;;;38.75;26.25;;;;;12.01;71.98;101505.25;5038900;28;45477;-77
2022/05/04 03:48:52;;;;;;;;;45.25;35.00;;;;;12.06;71.36;101495.63;5038505;28;46321;-76
2022/05/04 03:51:20;;;;;;;;;46.25;31.00;;;;;12.11;71.96;101511.16;5038432;28;45441;-76
2022/05/04 03:53:50;;;;;;;;;41.25;35.00;;;;;12.14;71.46;101500.66;5039036;28;45395;-76
2022/05/04 03:56:16;;;;;;;;;38.00;30.50;;;;;12.14;71.90;101505.88;5035788;28;45363;-76
2022/05/04 03:58:42;;;;;;;;;39.25;30.25;;;;;12.15;71.79;101505.84;5036157;28;45527;-77
2022/05/04 04:01:08;;;;;;;;;37.75;26.25;;;;;12.17;71.76;101496.22;5039127;28;45658;-77
2022/05/04 04:03:33;;;;;;;;;42.50;35.00;;;;;12.21;71.38;101496.16;5038577;28;45217;-77
2022/05/04 04:05:59;;;;;;;;;40.25;30.25;;;;;12.25;71.56;101492.63;5038563;28;45564;-74
2022/05/04 04:08:25;;;;;;;;;50.00;30.25;;;;;12.25;71.21;101484.81;5041935;28;46361;-74
2022/05/04 04:10:51;;;;;;;;;44.25;35.75;;;;;12.23;71.65;101492.66;5042387;28;45800;-73
2022/05/04 04:13:16;;;;;;;;;34.75;24.50;;;;;12.18;71.63;101487.53;5041933;28;45477;-72
2022/05/04 04:15:42;;;;;;;;;36.00;28.75;;;;;12.11;71.49;101490.31;5040670;28;45666;-72
2022/05/04 04:18:08;;;;;;;;;39.75;25.25;;;;;12.11;72.83;101492.91;5041758;28;45545;-72
2022/05/04 04:23:18;;;;;;;;;36.75;30.75;;;;;12.08;71.83;101491.22;5041661;28;45411;-75
2022/05/04 04:25:44;;;;;;;;;42.75;34.50;;;;;12.09;71.73;101498.16;5049474;28;45317;-76
2022/05/04 04:28:09;;;;;;;;;42.25;32.75;;;;;12.09;72.73;101502.50;5048732;28;47025;-76
2022/05/04 04:30:39;;;;;;;;;37.00;28.00;;;;;12.07;73.15;101507.75;5044458;28;45500;-72
2022/05/04 04:33:08;;;;;;;;;45.75;35.75;;;;;12.07;72.12;101506.91;5041409;28;45309;-71
2022/05/04 04:35:34;;;;;;;;;46.25;33.00;;;;;12.08;71.88;101506.88;5041491;28;45418;-74
2022/05/04 04:38:00;;;;;;;;;33.00;28.75;;;;;12.04;73.70;101510.44;5042005;28;45377;-72
2022/05/04 04:40:25;;;;;;;;;45.75;36.75;;;;;12.03;72.53;101507.88;5041491;28;45958;-73
2022/05/04 04:42:51;;;;;;;;;37.75;31.00;;;;;11.98;73.56;101512.28;5041444;28;45379;-74
2022/05/04 04:45:17;;;;;;;;;41.00;33.25;;;;;11.95;72.07;101509.75;5039880;28;45467;-74
2022/05/04 04:47:44;;;;;;;;;42.25;29.50;;;;;11.93;72.03;101514.13;5041192;28;45677;-74
2022/05/04 04:50:10;;;;;;;;;51.00;33.75;;;;;11.93;71.67;101521.94;5041260;28;45776;-73
2022/05/04 04:52:35;;;;;;;;;45.50;34.25;;;;;11.96;71.64;101516.69;5041750;28;45331;-72
2022/05/04 04:55:01;;;;;;;;;17.50;17.50;;;;;11.98;71.53;101504.47;5041392;28;45473;-72
2022/05/04 04:57:26;;;;;;;;;43.25;30.25;;;;;12.03;71.88;101507.88;5041284;28;45339;-72
2022/05/04 04:59:51;;;;;;;;;37.50;28.00;;;;;12.03;71.39;101516.53;5041467;28;45323;-73
2022/05/04 05:02:17;;;;;;;;;29.00;23.25;;;;;12.04;70.97;101517.41;5054072;28;45315;-73
2022/05/04 05:04:42;;;;;;;;;27.00;24.00;;;;;12.08;70.71;101517.28;5040916;28;45429;-72
2022/05/04 05:07:07;;;;;;;;;40.00;28.00;;;;;12.11;70.90;101521.56;5041234;28;45392;-72
2022/05/04 05:09:33;;;;;;;;;39.25;27.25;;;;;12.16;70.39;101527.53;5041253;28;45418;-78
2022/05/04 05:11:58;;;;;;;;;48.25;37.25;;;;;12.18;70.33;101528.34;5040864;28;45453;-76
2022/05/04 05:17:07;;;;;;;;;39.75;26.50;;;;;12.14;70.36;101519.75;5030638;28;45462;-73
2022/05/04 05:19:32;;;;;;;;;48.25;32.25;;;;;12.16;70.30;101528.38;5040133;28;45426;-78
2022/05/04 05:21:57;;;;;;;;;41.00;28.25;;;;;12.16;70.04;101524.94;5041422;28;45265;-78
2022/05/04 05:24:23;;;;;;;;;30.25;22.75;;;;;12.18;70.78;101529.22;5040946;28;45330;-78
2022/05/04 05:26:48;;;;;;;;;40.00;29.50;;;;;12.18;70.52;101531.81;5040805;28;45570;-72
2022/05/04 05:29:13;;;;;;;;;33.25;26.50;;;;;12.17;69.97;101526.66;5047529;28;45265;-73
2022/05/04 05:31:39;;;;;;;;;33.00;25.25;;;;;12.18;69.82;101538.78;5050464;28;45419;-73
2022/05/04 05:34:04;;;;;;;;;32.75;30.75;;;;;12.23;70.50;101536.09;5047585;28;45237;-68
2022/05/04 05:36:29;;;;;;;;;31.50;28.75;;;;;12.21;70.55;101527.44;5050735;28;47691;-69
2022/05/04 05:38:55;;;;;;;;;41.75;31.00;;;;;12.13;71.09;101525.84;5048611;28;45691;-68
2022/05/04 05:41:23;;;;;;;;;38.75;28.50;;;;;12.07;70.66;101535.56;5050822;28;45527;-70
2022/05/04 05:43:49;;;;;;;;;34.75;28.50;;;;;12.07;70.72;101541.63;5046040;28;45434;-71
2022/05/04 05:46:14;;;;;;;;;34.50;33.50;;;;;12.13;70.59;101535.41;5049860;28;46441;-74
2022/05/04 05:48:39;;;;;;;;;31.25;26.00;;;;;12.22;70.17;101545.66;5049734;28;45459;-72
2022/05/04 05:51:05;;;;;;;;;40.50;29.75;;;;;12.29;70.14;101547.25;5045574;28;45378;-74
2022/05/04 05:53:31;;;;;;;;;34.25;28.50;;;;;12.33;69.95;101550.63;5042360;28;45532;-75
2022/05/04 05:55:57;;;;;;;;;38.75;25.25;;;;;12.37;69.82;101550.53;5039894;28;46155;-73
2022/05/04 05:58:22;;;;;;;;;36.25;26.50;;;;;12.43;69.68;101560.84;5040175;28;45356;-74
2022/05/04 06:00:49;;;;;;;;;39.25;29.25;;;;;12.40;69.87;101560.03;5040060;28;45296;-69
2022/05/04 06:03:15;;;;;;;;;44.75;37.00;;;;;12.31;69.67;101550.66;5039822;28;45359;-70
2022/05/04 06:05:41;;;;;;;;;43.00;29.75;;;;;12.40;69.21;101553.06;5039888;28;45631;-68
2022/05/04 06:08:09;;;;;;;;;33.50;26.00;;;;;12.50;69.26;101556.34;5045327;28;45494;-68
2022/05/04 06:10:35;;;;;;;;;32.50;29.75;;;;;12.58;69.24;101558.75;5053822;28;45335;-68
2022/05/04 06:13:01;;;;;;;;;35.50;27.75;;;;;12.66;69.04;101562.06;5044264;28;45355;-68
2022/05/04 06:15:26;;;;;;;;;34.00;30.75;;;;;12.68;68.79;101547.25;5039834;28;46248;-68
2022/05/04 06:17:51;;;;;;;;;35.25;29.50;;;;;12.67;68.90;101554.22;5043994;28;45395;-69
2022/05/04 06:20:17;;;;;;;;;34.00;29.00;;;;;12.65;68.78;101549.94;5050318;28;45375;-68
2022/05/04 06:22:42;;;;;;;;;33.00;26.25;;;;;12.67;68.95;101562.03;5047568;28;45356;-69
2022/05/04 06:25:08;;;;;;;;;35.00;31.50;;;;;12.72;68.58;101562.78;5038606;28;47077;-69
2022/05/04 06:27:33;;;;;;;;;31.75;26.25;;;;;12.80;68.54;101560.84;5046701;28;45426;-69
2022/05/04 06:35:27;;;;;;;;;37.75;29.75;;;;;13.02;67.82;101582.06;5038905;28;45729;-68
2022/05/04 06:37:53;;;;;;;;;33.25;29.25;;;;;13.08;67.82;101581.91;5039279;28;45310;-68
2022/05/04 06:40:19;;;;;;;;;44.75;34.75;;;;;13.20;67.41;101579.91;5048143;28;45358;-67
2022/05/04 06:42:44;;;;;;;;;45.00;31.50;;;;;13.23;67.36;101572.03;5047462;28;45466;-69
2022/05/04 06:45:10;;;;;;;;;40.25;32.00;;;;;13.37;67.19;101582.97;5044636;28;45452;-71
2022/05/04 06:47:35;;;;;;;;;48.50;34.00;;;;;13.59;67.21;101580.66;5039163;28;45307;-70
2022/05/04 06:50:03;;;;;;;;;43.00;31.50;;;;;13.76;66.52;101573.22;5039548;28;45736;-69
2022/05/04 06:52:30;;;;;;;;;42.25;29.75;;;;;13.86;66.25;101571.22;5039444;28;45446;-71
2022/05/04 06:54:55;;;;;;;;;38.25;31.00;;;;;13.97;66.16;101563.94;5042881;28;48445;-71
2022/05/04 06:57:21;;;;;;;;;29.75;28.25;;;;;13.95;65.51;101556.13;5051180;28;45644;-68
2022/05/04 06:59:47;;;;;;;;;37.75;29.50;;;;;13.95;65.52;101556.13;5039423;28;45273;-68
2022/05/04 07:02:12;;;;;;;;;38.50;33.50;;;;;13.94;65.09;101551.81;5039284;28;45495;-68
2022/05/04 07:04:37;;;;;;;;;37.75;28.75;;;;;13.96;65.39;101547.41;5039338;28;45490;-68
2022/05/04 07:07:04;;;;;;;;;39.00;29.75;;;;;14.05;65.47;101543.69;5039101;28;45332;-68
2022/05/04 07:09:29;;;;;;;;;49.75;33.50;;;;;14.24;64.36;101559.69;5039475;28;45323;-68
2022/05/04 07:11:54;;;;;;;;;26.00;25.25;;;;;14.34;64.30;101558.50;5038937;28;45529;-69
2022/05/04 07:14:20;;;;;;;;;43.00;34.25;;;;;14.43;64.45;101571.34;5038921;28;45589;-69
2022/05/04 07:16:46;;;;;;;;;46.50;34.50;;;;;14.42;64.04;101568.75;5038731;28;45319;-68
2022/05/04 07:19:12;;;;;;;;;50.75;36.75;;;;;14.38;64.26;101567.94;5039388;28;45493;-68
2022/05/04 07:21:37;;;;;;;;;35.75;26.50;;;;;14.37;63.97;101573.22;5041574;28;45609;-68
2022/05/04 07:24:03;;;;;;;;;39.75;33.00;;;;;14.29;64.03;101574.31;5052062;28;47850;-69
2022/05/04 07:26:28;;;;;;;;;49.25;36.50;;;;;14.28;64.13;101574.38;5039351;28;45208;-68
2022/05/04 07:28:54;;;;;;;;;41.00;32.75;;;;;14.25;64.35;101569.25;5038020;28;45420;-69
2022/05/04 07:31:19;;;;;;;;;48.00;33.75;;;;;14.31;64.45;101571.66;5038825;28;45253;-70
2022/05/04 07:33:44;;;;;;;;;41.75;33.00;;;;;14.39;64.10;101568.81;5037805;28;46020;-70
2022/05/04 07:36:10;;;;;;;;;38.00;32.25;;;;;14.45;64.36;101585.22;5038684;28;45249;-69
2022/05/04 07:38:36;;;;;;;;;44.50;34.25;;;;;14.46;63.98;101589.56;5039360;28;45417;-69
2022/05/04 07:43:46;;;;;;;;;45.75;32.00;;;;;14.37;64.29;101589.78;5051455;28;45462;-70
2022/05/04 07:46:11;;;;;;;;;43.00;32.25;;;;;14.47;64.00;101601.72;5052297;28;45312;-68
2022/05/04 07:48:37;;;;;;;;;41.75;34.00;;;;;14.55;64.01;101598.88;5040817;28;45354;-68
2022/05/04 07:51:02;;;;;;;;;50.75;36.25;;;;;14.59;63.68;101600.47;5042447;28;45438;-69
2022/05/04 07:53:28;;;;;;;;;36.25;28.75;;;;;14.64;63.63;101592.53;5054236;28;46615;-69
2022/05/04 07:55:53;;;;;;;;;44.75;32.25;;;;;14.71;63.54;101597.50;5042629;28;45305;-69
2022/05/04 07:58:18;;;;;;;;;43.25;34.00;;;;;14.76;63.42;101584.28;5042462;28;45282;-70
2022/05/04 08:06:12;;;;;;;;;40.75;35.25;;;;;15.07;62.87;101594.63;5042028;28;45567;-68
2022/05/04 08:08:38;;;;;;;;;47.00;35.75;;;;;15.15;62.73;101590.00;5042360;28;45320;-70
2022/05/04 08:11:03;;;;;;;;;44.00;35.25;;;;;15.21;62.76;101590.63;5054148;28;45441;-70
2022/05/04 08:13:29;;;;;;;;;42.25;30.75;;;;;15.21;62.31;101589.78;5042713;28;45408;-70
2022/05/04 08:15:54;;;;;;;;;43.75;34.50;;;;;15.27;62.25;101596.59;5039743;28;45563;-70
2022/05/04 08:18:20;;;;;;;;;53.25;36.00;;;;;15.35;62.30;101594.56;5041623;28;45324;-69
2022/05/04 08:20:46;;;;;;;;;52.25;35.75;;;;;15.41;62.00;101592.59;5042268;28;45466;-70
2022/05/04 08:23:12;;;;;;;;;47.25;34.25;;;;;15.47;61.27;101599.41;5040426;28;49052;-70
2022/05/04 08:25:38;;;;;;;;;44.50;34.00;;;;;15.50;61.57;101602.78;5041900;28;45239;-70
2022/05/04 08:28:03;;;;;;;;;44.00;32.25;;;;;15.58;61.31;101594.63;5041863;28;45228;-70
2022/05/04 08:30:29;;;;;;;;;42.00;35.25;;;;;15.70;60.29;101602.13;5041693;28;45461;-70
2022/05/04 08:32:54;;;;;;;;;47.25;35.00;;;;;15.75;60.73;101601.94;5041653;28;46450;-70
2022/05/04 08:35:20;;;;;;;;;39.00;31.25;;;;;15.86;60.65;101599.81;5050073;28;45249;-70
2022/05/04 08:37:46;;;;;;;;;53.50;36.25;;;;;15.95;59.24;101596.84;5041961;28;45361;-70
2022/05/04 08:40:12;;;;;;;;;39.50;33.00;;;;;15.99;60.02;101606.31;5043281;28;45558;-69
2022/05/04 08:42:40;;;;;;;;;43.25;32.00;;;;;16.18;59.71;101603.03;5041373;28;46074;-70
2022/05/04 08:45:07;;;;;;;;;35.50;31.25;;;;;16.47;58.10;101608.06;5041594;28;45375;-71
2022/05/04 08:47:34;;;;;;;;;50.00;34.50;;;;;16.61;57.58;101599.63;5039966;28;45441;-72
2022/05/04 08:49:59;;;;;;;;;46.75;35.25;;;;;16.79;58.55;101603.34;5036246;28;45573;-70
2022/05/04 08:52:27;;;;;;;;;39.75;32.00;;;;;16.92;57.90;101605.44;5040967;28;46498;-70
2022/05/04 08:54:53;;;;;;;;;48.25;35.75;;;;;16.98;56.34;101604.31;5040363;28;45365;-69
2022/05/04 08:57:19;;;;;;;;;52.75;37.25;;;;;16.87;56.28;101604.75;5041350;28;45481;-70
2022/05/04 08:59:44;;;;;;;;;51.25;35.25;;;;;16.84;55.82;101601.41;5041225;28;45547;-70
2022/05/04 09:02:10;;;;;;;;;50.25;37.00;;;;;16.91;56.07;101602.88;5041819;28;46140;-70
2022/05/04 09:04:41;;;;;;;;;48.25;35.50;;;;;16.98;56.21;101604.31;5041251;28;45824;-71
2022/05/04 09:07:20;;;;;;;;;59.25;41.50;;;;;17.20;57.19;101607.78;5029207;28;45475;-71
2022/05/04 09:09:45;;;;;;;;;52.50;37.50;;;;;17.47;56.82;101599.69;5044219;28;45311;-71
2022/05/04 09:12:14;;;;;;;;;48.75;36.50;;;;;17.58;55.96;101600.91;5052551;28;46174;-71
2022/05/04 09:14:41;;;;;;;;;50.75;33.50;;;;;17.67;54.76;101615.44;5040981;28;45358;-69
2022/05/04 09:17:10;;;;;;;;;43.75;34.75;;;;;17.69;54.66;101613.63;5041252;28;45403;-70
2022/05/04 09:19:35;;;;;;;;;46.50;33.50;;;;;17.76;54.20;101615.06;5041117;28;45454;-70
2022/05/04 09:22:01;;;;;;;;;40.50;33.50;;;;;17.94;54.54;101619.53;5041203;28;45525;-69
2022/05/04 09:24:28;;;;;;;;;43.75;33.00;;;;;18.05;54.20;101613.81;5041205;28;45233;-71
2022/05/04 09:26:56;;;;;;;;;47.75;33.25;;;;;18.08;54.41;101618.06;5041130;28;45360;-71
2022/05/04 09:29:33;;;;;;;;;43.25;35.25;;;;;18.05;53.01;101605.91;5040729;28;45567;-71
2022/05/04 09:31:59;;;;;;;;;46.00;33.25;;;;;18.11;53.70;101612.66;5041071;28;45338;-72
2022/05/04 09:34:34;;;;;;;;;50.00;36.00;;;;;18.26;51.29;101609.34;5038821;28;45387;-71
2022/05/04 09:45:34;;;;;;;;;38.50;31.00;;;;;17.90;52.37;101588.19;5040092;28;45518;-72
2022/05/04 09:48:00;;;;;;;;;37.75;33.75;;;;;17.89;52.85;101600.47;5040108;28;45430;-69
2022/05/04 09:50:27;;;;;;;;;44.00;36.00;;;;;17.89;52.50;101592.59;5040094;28;45356;-75
2022/05/04 09:52:53;;;;;;;;;42.25;34.00;;;;;17.94;51.87;101593.22;5042325;28;46166;-75
2022/05/04 09:55:24;;;;;;;;;37.75;31.00;;;;;17.92;52.45;101588.97;5040294;28;45486;-80
2022/05/04 09:57:50;;;;;;;;;42.75;33.00;;;;;17.81;52.52;101581.53;5040395;28;45383;-79
2022/05/04 10:00:19;;;;;;;;;39.00;31.25;;;;;17.78;52.51;101581.69;5039495;28;45401;-76
2022/05/04 10:02:46;;;;;;;;;48.25;33.50;;;;;17.80;52.11;101585.09;5039998;28;46129;-82
2022/05/04 10:05:13;;;;;;;;;39.25;32.25;;;;;17.82;52.83;101583.28;5039672;28;46237;-80
2022/05/04 10:07:40;;;;;;;;;39.75;31.25;;;;;17.93;52.91;101591.53;5040406;28;45553;-81
2022/05/04 10:10:07;;;;;;;;;44.00;32.25;;;;;18.05;51.63;101597.16;5049031;28;45374;-78
2022/05/04 10:12:41;;;;;;;;;26.25;22.00;;;;;18.04;51.70;101588.44;5039777;28;45609;-78
2022/05/04 10:15:08;;;;;;;;;32.75;24.25;;;;;18.04;52.19;101588.44;5039342;28;45854;-79
2022/05/04 10:17:37;;;;;;;;;46.25;33.00;;;;;18.07;52.05;101585.66;5039737;28;45296;-78
2022/05/04 10:20:09;;;;;;;;;40.75;32.25;;;;;18.10;52.29;101597.81;5038961;28;45578;-79
2022/05/04 10:22:43;;;;;;;;;33.75;31.00;;;;;18.16;50.81;101592.25;5046618;28;45444;-83
2022/05/04 10:25:12;;;;;;;;;33.25;28.00;;;;;18.12;50.98;101588.94;5047172;28;45390;-85
2022/05/04 10:27:42;;;;;;;;;42.25;33.00;;;;;18.00;51.61;101589.47;5051727;28;45268;-84
2022/05/04 10:32:58;;;;;;;;;40.25;34.75;;;;;18.16;51.78;101592.25;5047017;28;45677;-82
2022/05/04 10:35:48;;;;;;;;;40.75;33.50;;;;;18.22;51.89;101582.34;5067102;28;45776;-78
2022/05/04 10:38:25;;;;;;;;;36.25;29.75;;;;;18.50;51.62;101592.44;5046052;28;45429;-76
2022/05/04 10:40:54;;;;;;;;;44.50;33.00;;;;;18.61;51.37;101583.16;5045676;28;45295;-69
2022/05/04 10:43:37;;;;;;;;;35.75;28.75;;;;;18.64;51.06;101580.44;5046772;28;46548;-67
2022/05/04 10:46:11;;;;;;;;;40.75;33.00;;;;;18.75;49.87;101591.28;5044630;28;45418;-69
2022/05/04 10:48:42;;;;;;;;;33.25;28.25;;;;;18.85;49.33;101597.84;5045534;28;45432;-69
2022/05/04 10:51:19;;;;;;;;;34.50;28.25;;;;;18.95;50.23;101585.91;5048432;28;45294;-69
2022/05/04 10:53:47;;;;;;;;;35.50;28.00;;;;;19.10;49.36;101592.22;5043805;28;46132;-69
2022/05/04 10:56:24;;;;;;;;;28.00;26.50;;;;;19.25;49.26;101593.25;5047120;28;45334;-69
2022/05/04 10:58:49;;;;;;;;;25.50;22.25;;;;;19.34;48.07;101592.75;5047758;28;45363;-70
2022/05/04 11:01:14;;;;;;;;;22.50;19.50;;;;;19.43;48.53;101598.44;5046007;28;45296;-56
2022/05/04 11:04:11;;;;;;;;;30.50;23.00;;;;;19.43;47.34;101581.78;5047769;28;46504;-57
2022/05/04 11:07:03;;;;;;;;;21.00;18.00;;;;;19.48;47.38;101587.66;5044043;28;45369;-56
2022/05/04 11:09:43;;;;;;;;;20.25;17.50;;;;;19.53;47.16;101580.34;5045841;28;45381;-55
2022/05/04 11:12:12;;;;;;;;;19.75;19.00;;;;;19.66;47.63;101588.53;5046713;28;45452;-56
2022/05/04 11:14:38;;;;;;;;;11.50;11.25;;;;;19.76;45.54;101584.47;5045224;28;45528;-64
2022/05/04 11:17:11;;;;;;;;;17.25;13.75;;;;;19.81;45.71;101571.03;5045470;28;45896;-63
2022/05/04 11:19:44;;;;;;;;;15.50;13.25;;;;;19.80;45.28;101578.09;5033738;28;45399;-61
2022/05/04 11:22:11;;;;;;;;;14.75;13.00;;;;;19.83;43.99;101572.69;5034017;28;45397;-61
2022/05/04 11:24:37;;;;;;;;;17.25;14.25;;;;;19.86;44.38;101576.94;5037374;28;46280;-60
2022/05/04 11:27:04;;;;;;;;;17.25;15.00;;;;;19.87;43.66;101568.94;5038112;28;45806;-64
2022/05/04 11:29:29;;;;;;;;;13.75;13.25;;;;;19.89;44.90;101563.59;5038344;28;45378;-62
2022/05/04 11:32:01;;;;;;;;;15.25;15.00;;;;;19.81;44.31;101569.25;5043586;28;45494;-60
2022/05/04 11:34:30;;;;;;;;;14.00;11.25;;;;;19.78;44.26;101572.03;5046416;28;46393;-61
2022/05/04 11:36:58;;;;;;;;;17.25;12.50;;;;;19.70;42.94;101569.81;5042395;28;45430;-61
2022/05/04 11:39:28;;;;;;;;;13.00;13.00;;;;;19.74;43.48;101570.50;5040145;28;45301;-61
2022/05/04 11:41:57;;;;;;;;;14.25;13.75;;;;;19.82;44.08;101570.09;5029148;28;45659;-61
2022/05/04 11:44:24;;;;;;;;;16.00;12.75;;;;;19.87;43.90;101568.09;5043744;28;46047;-61